Grundy, VA

7:15 AM EDT on August 25, 2016 (GMT -0400)
KM4HDM - Richlands, Virginia | | Change Station

Elev 1972 ft 37.09 °N, 81.83 °W | Updated 14 minutes ago

Mostly Cloudy
Mostly Cloudy
62.1 °F
Feels Like 62.1 °F
N
0.0
Wind Variable Wind from West

Today
High -- | Low -- °F
--% Chance of Precip.
Yesterday
High -- | Low -- °F
Precip. -- in
Pressure 30.28 in
Visibility 10.0 miles
Clouds Scattered Clouds 3300 ft
Scattered Clouds 4500 ft
Mostly Cloudy 6000 ft
Dew Point 62 °F
Humidity 99%
Rainfall 0.00 in
Snow Depth Not available.
6:53 AM 8:06 PM
Waning Gibbous, 46% visible
METAR KJFZ 251055Z AUTO 21003KT 10SM SCT033 SCT045 BKN060 20/20 A3028 RMK AO2 T01980195
Pressure 30.28 in
Visibility 10.0 miles
Clouds Scattered Clouds 3300 ft
Scattered Clouds 4500 ft
Mostly Cloudy 6000 ft
Dew Point 62 °F
Humidity 99%
Rainfall 0.00 in
Snow Depth Not available.
6:53 AM 8:06 PM
Waning Gibbous, 46% visible
METAR KJFZ 251055Z AUTO 21003KT 10SM SCT033 SCT045 BKN060 20/20 A3028 RMK AO2 T01980195

10-Day Weather Forecast

Almanac

Astronomy

Aug. 25, 2016 Rise Set
Actual Time
Civil Twilight
Nautical Twilight
Astronomical Twilight
Moon
Length of Visible Light
Length of Day
Tomorrow will be .
, % of the Moon is Illuminated

Today's Extremes

State Highs State Lows

Community

WunderPhotos

Upload Photos

1,934,822 photos uploaded!

WunderBlog® & News

Nearby

Air Quality

  Air Quality AQ Index Pollutant
Not available.

Snow Depth

Station Depth Elevation

Earthquake Activity

City Distance Mag. Time & Date
Minimum magnitude displayed is 2.5.

Coastal Water Temperatures

Place Temperature

Stations

Nearby Weather Stations

Station Location Temp. Windchill Dew Point Humidity Wind Precip. Elev Updated Type
                   

Watches & Warnings

There are currently no watches in effect.